sensor_id;sensor_type;location;lat;lon;timestamp;P1;durP1;ratioP1;P2;durP2;ratioP2
47251;SDS011;32991;51.374;11.586;2023-03-01T00:00:03;19.97;;;11.87;;
47251;SDS011;32991;51.374;11.586;2023-03-01T00:02:36;18.90;;;12.50;;
47251;SDS011;32991;51.374;11.586;2023-03-01T00:05:07;16.77;;;11.03;;
47251;SDS011;32991;51.374;11.586;2023-03-01T00:07:33;18.33;;;11.23;;
47251;SDS011;32991;51.374;11.586;2023-03-01T00:10:00;18.53;;;11.57;;
47251;SDS011;32991;51.374;11.586;2023-03-01T00:12:26;17.90;;;11.10;;
47251;SDS011;32991;51.374;11.586;2023-03-01T00:14:53;17.03;;;10.80;;
47251;SDS011;32991;51.374;11.586;2023-03-01T00:17:20;17.67;;;10.50;;
47251;SDS011;32991;51.374;11.586;2023-03-01T00:19:49;17.73;;;10.80;;
47251;SDS011;32991;51.374;11.586;2023-03-01T00:22:16;18.13;;;11.20;;
47251;SDS011;32991;51.374;11.586;2023-03-01T00:24:42;16.17;;;10.90;;
47251;SDS011;32991;51.374;11.586;2023-03-01T00:27:09;17.60;;;10.70;;
47251;SDS011;32991;51.374;11.586;2023-03-01T00:29:35;15.83;;;10.83;;
47251;SDS011;32991;51.374;11.586;2023-03-01T00:32:02;17.03;;;11.60;;
47251;SDS011;32991;51.374;11.586;2023-03-01T00:34:28;16.50;;;11.23;;
47251;SDS011;32991;51.374;11.586;2023-03-01T00:36:55;15.00;;;10.77;;
47251;SDS011;32991;51.374;11.586;2023-03-01T00:39:21;20.63;;;12.23;;
47251;SDS011;32991;51.374;11.586;2023-03-01T00:41:48;18.63;;;11.17;;
47251;SDS011;32991;51.374;11.586;2023-03-01T00:44:15;16.77;;;11.17;;
47251;SDS011;32991;51.374;11.586;2023-03-01T00:46:41;15.47;;;11.17;;
47251;SDS011;32991;51.374;11.586;2023-03-01T00:49:08;19.27;;;11.30;;
47251;SDS011;32991;51.374;11.586;2023-03-01T00:51:34;17.00;;;11.17;;
47251;SDS011;32991;51.374;11.586;2023-03-01T00:54:01;17.83;;;11.37;;
47251;SDS011;32991;51.374;11.586;2023-03-01T00:56:28;17.30;;;11.80;;
47251;SDS011;32991;51.374;11.586;2023-03-01T00:58:59;17.57;;;11.67;;
47251;SDS011;32991;51.374;11.586;2023-03-01T01:01:27;17.50;;;10.63;;
47251;SDS011;32991;51.374;11.586;2023-03-01T01:03:57;19.27;;;11.50;;
47251;SDS011;32991;51.374;11.586;2023-03-01T01:06:28;16.97;;;12.33;;
47251;SDS011;32991;51.374;11.586;2023-03-01T01:09:00;20.80;;;11.83;;
47251;SDS011;32991;51.374;11.586;2023-03-01T01:11:31;18.03;;;12.07;;
47251;SDS011;32991;51.374;11.586;2023-03-01T01:13:58;16.27;;;10.70;;
47251;SDS011;32991;51.374;11.586;2023-03-01T01:16:26;16.67;;;11.23;;
47251;SDS011;32991;51.374;11.586;2023-03-01T01:18:55;18.10;;;11.47;;
47251;SDS011;32991;51.374;11.586;2023-03-01T01:21:23;17.47;;;11.07;;
47251;SDS011;32991;51.374;11.586;2023-03-01T01:23:51;18.27;;;11.67;;
47251;SDS011;32991;51.374;11.586;2023-03-01T01:26:18;17.40;;;10.53;;
47251;SDS011;32991;51.374;11.586;2023-03-01T01:28:48;21.90;;;11.33;;
47251;SDS011;32991;51.374;11.586;2023-03-01T01:31:16;19.57;;;12.33;;
47251;SDS011;32991;51.374;11.586;2023-03-01T01:33:43;19.67;;;11.03;;
47251;SDS011;32991;51.374;11.586;2023-03-01T01:36:10;20.23;;;11.93;;
47251;SDS011;32991;51.374;11.586;2023-03-01T01:38:37;19.37;;;12.43;;
47251;SDS011;32991;51.374;11.586;2023-03-01T01:41:04;19.63;;;12.00;;
47251;SDS011;32991;51.374;11.586;2023-03-01T01:43:36;18.43;;;11.70;;
47251;SDS011;32991;51.374;11.586;2023-03-01T01:46:31;17.43;;;11.80;;
47251;SDS011;32991;51.374;11.586;2023-03-01T01:49:07;18.67;;;11.57;;
47251;SDS011;32991;51.374;11.586;2023-03-01T01:51:40;17.70;;;11.83;;
47251;SDS011;32991;51.374;11.586;2023-03-01T01:54:13;18.83;;;10.70;;
47251;SDS011;32991;51.374;11.586;2023-03-01T01:56:44;17.47;;;10.73;;
47251;SDS011;32991;51.374;11.586;2023-03-01T01:59:14;31.40;;;11.00;;
47251;SDS011;32991;51.374;11.586;2023-03-01T02:01:41;18.37;;;10.20;;
47251;SDS011;32991;51.374;11.586;2023-03-01T02:04:10;16.00;;;10.30;;
47251;SDS011;32991;51.374;11.586;2023-03-01T02:06:39;16.93;;;11.43;;
47251;SDS011;32991;51.374;11.586;2023-03-01T02:09:11;22.77;;;12.40;;
47251;SDS011;32991;51.374;11.586;2023-03-01T02:11:39;19.73;;;11.93;;
47251;SDS011;32991;51.374;11.586;2023-03-01T02:14:06;18.97;;;11.37;;
47251;SDS011;32991;51.374;11.586;2023-03-01T02:16:33;19.93;;;12.43;;
47251;SDS011;32991;51.374;11.586;2023-03-01T02:19:00;21.40;;;10.37;;
47251;SDS011;32991;51.374;11.586;2023-03-01T02:24:26;17.63;;;10.03;;
47251;SDS011;32991;51.374;11.586;2023-03-01T02:26:57;18.33;;;10.93;;
47251;SDS011;32991;51.374;11.586;2023-03-01T02:29:25;16.37;;;9.57;;
47251;SDS011;32991;51.374;11.586;2023-03-01T02:31:53;16.10;;;9.93;;
47251;SDS011;32991;51.374;11.586;2023-03-01T02:34:25;19.43;;;10.33;;
47251;SDS011;32991;51.374;11.586;2023-03-01T02:36:57;22.00;;;12.53;;
47251;SDS011;32991;51.374;11.586;2023-03-01T02:39:30;21.63;;;11.17;;
47251;SDS011;32991;51.374;11.586;2023-03-01T02:41:59;16.50;;;10.77;;
47251;SDS011;32991;51.374;11.586;2023-03-01T02:44:28;21.63;;;10.40;;
47251;SDS011;32991;51.374;11.586;2023-03-01T02:46:55;19.30;;;10.00;;
47251;SDS011;32991;51.374;11.586;2023-03-01T02:52:09;22.70;;;11.63;;
47251;SDS011;32991;51.374;11.586;2023-03-01T02:55:00;18.20;;;10.67;;
47251;SDS011;32991;51.374;11.586;2023-03-01T02:57:34;15.77;;;9.63;;
47251;SDS011;32991;51.374;11.586;2023-03-01T03:00:05;16.77;;;9.03;;
47251;SDS011;32991;51.374;11.586;2023-03-01T03:02:35;15.63;;;9.20;;
47251;SDS011;32991;51.374;11.586;2023-03-01T03:05:27;15.37;;;9.10;;
47251;SDS011;32991;51.374;11.586;2023-03-01T03:07:56;17.73;;;8.93;;
47251;SDS011;32991;51.374;11.586;2023-03-01T03:10:32;16.80;;;8.10;;
47251;SDS011;32991;51.374;11.586;2023-03-01T03:13:03;13.87;;;8.30;;
47251;SDS011;32991;51.374;11.586;2023-03-01T03:15:31;14.57;;;8.73;;
47251;SDS011;32991;51.374;11.586;2023-03-01T03:18:04;15.13;;;8.10;;
47251;SDS011;32991;51.374;11.586;2023-03-01T03:20:32;13.73;;;8.10;;
47251;SDS011;32991;51.374;11.586;2023-03-01T03:22:59;14.83;;;8.90;;
47251;SDS011;32991;51.374;11.586;2023-03-01T03:25:26;13.80;;;8.13;;
47251;SDS011;32991;51.374;11.586;2023-03-01T03:27:54;12.93;;;7.47;;
47251;SDS011;32991;51.374;11.586;2023-03-01T03:30:25;16.97;;;8.70;;
47251;SDS011;32991;51.374;11.586;2023-03-01T03:32:56;14.33;;;7.90;;
47251;SDS011;32991;51.374;11.586;2023-03-01T03:35:25;14.70;;;9.00;;
47251;SDS011;32991;51.374;11.586;2023-03-01T03:37:57;16.23;;;8.40;;
47251;SDS011;32991;51.374;11.586;2023-03-01T03:40:31;14.95;;;7.30;;
47251;SDS011;32991;51.374;11.586;2023-03-01T03:43:09;12.27;;;8.37;;
47251;SDS011;32991;51.374;11.586;2023-03-01T03:45:38;17.57;;;8.43;;
47251;SDS011;32991;51.374;11.586;2023-03-01T03:48:06;11.77;;;7.33;;
47251;SDS011;32991;51.374;11.586;2023-03-01T03:50:34;16.03;;;8.77;;
47251;SDS011;32991;51.374;11.586;2023-03-01T03:53:03;14.90;;;8.10;;
47251;SDS011;32991;51.374;11.586;2023-03-01T03:55:31;13.07;;;8.33;;
47251;SDS011;32991;51.374;11.586;2023-03-01T03:58:00;13.13;;;7.70;;
47251;SDS011;32991;51.374;11.586;2023-03-01T04:00:34;14.45;;;8.23;;
47251;SDS011;32991;51.374;11.586;2023-03-01T04:03:01;15.70;;;8.30;;
47251;SDS011;32991;51.374;11.586;2023-03-01T04:05:28;14.20;;;8.30;;
47251;SDS011;32991;51.374;11.586;2023-03-01T04:07:55;17.80;;;9.07;;
47251;SDS011;32991;51.374;11.586;2023-03-01T04:13:50;12.53;;;7.60;;
47251;SDS011;32991;51.374;11.586;2023-03-01T04:16:20;18.00;;;8.00;;
47251;SDS011;32991;51.374;11.586;2023-03-01T04:18:50;15.17;;;8.63;;
47251;SDS011;32991;51.374;11.586;2023-03-01T04:21:16;16.07;;;8.27;;
47251;SDS011;32991;51.374;11.586;2023-03-01T04:23:43;12.87;;;7.63;;
47251;SDS011;32991;51.374;11.586;2023-03-01T04:26:10;14.57;;;7.80;;
47251;SDS011;32991;51.374;11.586;2023-03-01T04:28:38;15.57;;;8.27;;
47251;SDS011;32991;51.374;11.586;2023-03-01T04:31:07;13.87;;;7.80;;
47251;SDS011;32991;51.374;11.586;2023-03-01T04:33:46;13.00;;;7.10;;
47251;SDS011;32991;51.374;11.586;2023-03-01T04:36:17;16.50;;;7.47;;
47251;SDS011;32991;51.374;11.586;2023-03-01T04:38:46;17.23;;;8.70;;
47251;SDS011;32991;51.374;11.586;2023-03-01T04:41:14;14.70;;;9.23;;
47251;SDS011;32991;51.374;11.586;2023-03-01T04:43:42;22.30;;;10.87;;
47251;SDS011;32991;51.374;11.586;2023-03-01T04:46:11;21.67;;;10.40;;
47251;SDS011;32991;51.374;11.586;2023-03-01T04:48:41;22.50;;;10.00;;
47251;SDS011;32991;51.374;11.586;2023-03-01T04:51:12;21.93;;;9.90;;
47251;SDS011;32991;51.374;11.586;2023-03-01T04:53:39;18.33;;;8.67;;
47251;SDS011;32991;51.374;11.586;2023-03-01T04:56:06;17.13;;;7.90;;
47251;SDS011;32991;51.374;11.586;2023-03-01T04:58:33;15.67;;;7.93;;
47251;SDS011;32991;51.374;11.586;2023-03-01T05:01:00;15.03;;;8.53;;
47251;SDS011;32991;51.374;11.586;2023-03-01T05:03:45;13.73;;;7.90;;
47251;SDS011;32991;51.374;11.586;2023-03-01T05:06:18;16.87;;;9.37;;
47251;SDS011;32991;51.374;11.586;2023-03-01T05:08:45;15.03;;;7.83;;
47251;SDS011;32991;51.374;11.586;2023-03-01T05:11:12;14.33;;;8.17;;
47251;SDS011;32991;51.374;11.586;2023-03-01T05:13:39;20.97;;;8.47;;
47251;SDS011;32991;51.374;11.586;2023-03-01T05:16:07;16.00;;;8.27;;
47251;SDS011;32991;51.374;11.586;2023-03-01T05:18:38;16.33;;;8.30;;
47251;SDS011;32991;51.374;11.586;2023-03-01T05:21:06;14.87;;;8.57;;
47251;SDS011;32991;51.374;11.586;2023-03-01T05:23:37;14.27;;;8.33;;
47251;SDS011;32991;51.374;11.586;2023-03-01T05:26:04;22.67;;;9.30;;
47251;SDS011;32991;51.374;11.586;2023-03-01T05:28:37;14.75;;;7.40;;
47251;SDS011;32991;51.374;11.586;2023-03-01T05:31:04;13.43;;;7.73;;
47251;SDS011;32991;51.374;11.586;2023-03-01T05:33:36;17.70;;;8.57;;
47251;SDS011;32991;51.374;11.586;2023-03-01T05:36:04;14.13;;;8.50;;
47251;SDS011;32991;51.374;11.586;2023-03-01T05:38:32;18.10;;;8.30;;
47251;SDS011;32991;51.374;11.586;2023-03-01T05:40:59;14.73;;;8.30;;
47251;SDS011;32991;51.374;11.586;2023-03-01T05:43:26;18.63;;;8.83;;
47251;SDS011;32991;51.374;11.586;2023-03-01T05:46:00;14.75;;;8.73;;
47251;SDS011;32991;51.374;11.586;2023-03-01T05:48:27;17.43;;;9.00;;
47251;SDS011;32991;51.374;11.586;2023-03-01T05:50:57;17.03;;;8.20;;
47251;SDS011;32991;51.374;11.586;2023-03-01T05:53:27;16.73;;;8.37;;
47251;SDS011;32991;51.374;11.586;2023-03-01T05:55:58;18.37;;;8.87;;
47251;SDS011;32991;51.374;11.586;2023-03-01T05:58:24;19.13;;;9.90;;
47251;SDS011;32991;51.374;11.586;2023-03-01T06:00:51;19.30;;;9.23;;
47251;SDS011;32991;51.374;11.586;2023-03-01T06:03:20;16.03;;;9.47;;
47251;SDS011;32991;51.374;11.586;2023-03-01T06:05:47;17.70;;;9.37;;
47251;SDS011;32991;51.374;11.586;2023-03-01T06:08:15;19.13;;;9.10;;
47251;SDS011;32991;51.374;11.586;2023-03-01T06:10:42;17.23;;;9.47;;
47251;SDS011;32991;51.374;11.586;2023-03-01T06:13:08;15.80;;;8.80;;
47251;SDS011;32991;51.374;11.586;2023-03-01T06:15:38;16.33;;;9.40;;
47251;SDS011;32991;51.374;11.586;2023-03-01T06:18:05;13.83;;;8.27;;
47251;SDS011;32991;51.374;11.586;2023-03-01T06:20:32;14.77;;;9.07;;
47251;SDS011;32991;51.374;11.586;2023-03-01T06:22:58;18.67;;;9.70;;
47251;SDS011;32991;51.374;11.586;2023-03-01T06:25:26;17.77;;;9.30;;
47251;SDS011;32991;51.374;11.586;2023-03-01T06:27:53;18.63;;;9.47;;
47251;SDS011;32991;51.374;11.586;2023-03-01T06:30:20;18.67;;;9.87;;
47251;SDS011;32991;51.374;11.586;2023-03-01T06:32:50;21.20;;;10.40;;
47251;SDS011;32991;51.374;11.586;2023-03-01T06:35:18;15.27;;;9.57;;
47251;SDS011;32991;51.374;11.586;2023-03-01T06:37:45;24.03;;;11.87;;
47251;SDS011;32991;51.374;11.586;2023-03-01T06:40:13;20.43;;;11.30;;
47251;SDS011;32991;51.374;11.586;2023-03-01T06:42:41;24.67;;;13.47;;
47251;SDS011;32991;51.374;11.586;2023-03-01T06:45:15;30.40;;;14.00;;
47251;SDS011;32991;51.374;11.586;2023-03-01T06:47:43;22.35;;;12.30;;
47251;SDS011;32991;51.374;11.586;2023-03-01T06:50:14;19.45;;;11.57;;
47251;SDS011;32991;51.374;11.586;2023-03-01T06:52:41;19.17;;;11.00;;
47251;SDS011;32991;51.374;11.586;2023-03-01T06:55:12;14.75;;;10.73;;
47251;SDS011;32991;51.374;11.586;2023-03-01T06:57:39;15.35;;;10.57;;
47251;SDS011;32991;51.374;11.586;2023-03-01T07:00:06;16.85;;;10.80;;
47251;SDS011;32991;51.374;11.586;2023-03-01T07:02:34;11.98;;;10.18;;
47251;SDS011;32991;51.374;11.586;2023-03-01T07:05:01;13.77;;;10.50;;
47251;SDS011;32991;51.374;11.586;2023-03-01T07:07:27;18.95;;;10.52;;
47251;SDS011;32991;51.374;11.586;2023-03-01T07:09:57;14.88;;;10.52;;
47251;SDS011;32991;51.374;11.586;2023-03-01T07:12:26;13.50;;;9.95;;
47251;SDS011;32991;51.374;11.586;2023-03-01T07:14:56;14.18;;;10.07;;
47251;SDS011;32991;51.374;11.586;2023-03-01T07:17:23;17.85;;;10.10;;
47251;SDS011;32991;51.374;11.586;2023-03-01T07:19:49;12.20;;;9.63;;
47251;SDS011;32991;51.374;11.586;2023-03-01T07:22:16;13.30;;;9.98;;
47251;SDS011;32991;51.374;11.586;2023-03-01T07:24:45;11.52;;;9.88;;
47251;SDS011;32991;51.374;11.586;2023-03-01T07:27:11;15.00;;;10.25;;
47251;SDS011;32991;51.374;11.586;2023-03-01T07:29:41;13.18;;;10.57;;
47251;SDS011;32991;51.374;11.586;2023-03-01T07:32:07;14.43;;;9.95;;
47251;SDS011;32991;51.374;11.586;2023-03-01T07:34:35;12.27;;;9.57;;
47251;SDS011;32991;51.374;11.586;2023-03-01T07:37:01;12.27;;;10.00;;
47251;SDS011;32991;51.374;11.586;2023-03-01T07:39:28;13.65;;;10.18;;
47251;SDS011;32991;51.374;11.586;2023-03-01T07:41:54;13.27;;;10.20;;
47251;SDS011;32991;51.374;11.586;2023-03-01T07:44:21;15.95;;;9.98;;
47251;SDS011;32991;51.374;11.586;2023-03-01T07:46:48;12.35;;;10.15;;
47251;SDS011;32991;51.374;11.586;2023-03-01T07:49:14;12.38;;;9.57;;
47251;SDS011;32991;51.374;11.586;2023-03-01T07:51:42;14.60;;;9.50;;
47251;SDS011;32991;51.374;11.586;2023-03-01T07:54:11;15.13;;;10.20;;
47251;SDS011;32991;51.374;11.586;2023-03-01T07:56:38;13.38;;;10.07;;
47251;SDS011;32991;51.374;11.586;2023-03-01T07:59:05;16.08;;;10.50;;
47251;SDS011;32991;51.374;11.586;2023-03-01T08:01:31;12.55;;;9.23;;
47251;SDS011;32991;51.374;11.586;2023-03-01T08:03:58;17.25;;;10.13;;
47251;SDS011;32991;51.374;11.586;2023-03-01T08:06:25;13.15;;;9.98;;
47251;SDS011;32991;51.374;11.586;2023-03-01T08:08:52;12.90;;;9.85;;
47251;SDS011;32991;51.374;11.586;2023-03-01T08:11:18;14.60;;;9.85;;
47251;SDS011;32991;51.374;11.586;2023-03-01T08:13:46;12.88;;;9.10;;
47251;SDS011;32991;51.374;11.586;2023-03-01T08:16:16;15.10;;;9.85;;
47251;SDS011;32991;51.374;11.586;2023-03-01T08:18:43;12.75;;;9.88;;
47251;SDS011;32991;51.374;11.586;2023-03-01T08:21:12;13.77;;;8.40;;
47251;SDS011;32991;51.374;11.586;2023-03-01T08:23:40;14.65;;;10.07;;
47251;SDS011;32991;51.374;11.586;2023-03-01T08:26:12;12.63;;;9.85;;
47251;SDS011;32991;51.374;11.586;2023-03-01T08:28:43;14.50;;;9.77;;
47251;SDS011;32991;51.374;11.586;2023-03-01T08:31:18;13.10;;;10.05;;
47251;SDS011;32991;51.374;11.586;2023-03-01T08:33:52;13.45;;;9.77;;
47251;SDS011;32991;51.374;11.586;2023-03-01T08:36:26;14.48;;;9.75;;
47251;SDS011;32991;51.374;11.586;2023-03-01T08:38:59;11.07;;;9.57;;
47251;SDS011;32991;51.374;11.586;2023-03-01T08:41:26;13.77;;;9.23;;
47251;SDS011;32991;51.374;11.586;2023-03-01T08:43:52;13.38;;;9.35;;
47251;SDS011;32991;51.374;11.586;2023-03-01T08:46:29;13.00;;;9.98;;
47251;SDS011;32991;51.374;11.586;2023-03-01T08:49:04;13.98;;;10.45;;
47251;SDS011;32991;51.374;11.586;2023-03-01T08:51:31;10.80;;;9.07;;
47251;SDS011;32991;51.374;11.586;2023-03-01T08:54:03;14.82;;;10.20;;
47251;SDS011;32991;51.374;11.586;2023-03-01T08:56:30;13.65;;;10.02;;
47251;SDS011;32991;51.374;11.586;2023-03-01T08:58:57;12.48;;;9.13;;
47251;SDS011;32991;51.374;11.586;2023-03-01T09:01:27;18.75;;;10.10;;
47251;SDS011;32991;51.374;11.586;2023-03-01T09:03:53;19.15;;;10.23;;
47251;SDS011;32991;51.374;11.586;2023-03-01T09:06:20;23.40;;;10.93;;
47251;SDS011;32991;51.374;11.586;2023-03-01T09:08:47;16.58;;;10.05;;
47251;SDS011;32991;51.374;11.586;2023-03-01T09:11:18;17.38;;;10.40;;
47251;SDS011;32991;51.374;11.586;2023-03-01T09:13:46;16.10;;;9.93;;
47251;SDS011;32991;51.374;11.586;2023-03-01T09:16:14;13.45;;;9.95;;
47251;SDS011;32991;51.374;11.586;2023-03-01T09:18:41;14.10;;;9.90;;
47251;SDS011;32991;51.374;11.586;2023-03-01T09:21:12;12.52;;;9.98;;
47251;SDS011;32991;51.374;11.586;2023-03-01T09:23:41;15.30;;;10.63;;
47251;SDS011;32991;51.374;11.586;2023-03-01T09:26:10;14.13;;;10.82;;
47251;SDS011;32991;51.374;11.586;2023-03-01T09:28:42;14.90;;;10.20;;
47251;SDS011;32991;51.374;11.586;2023-03-01T09:31:09;13.85;;;10.27;;
47251;SDS011;32991;51.374;11.586;2023-03-01T09:33:39;12.93;;;10.00;;
47251;SDS011;32991;51.374;11.586;2023-03-01T09:36:10;12.75;;;9.98;;
47251;SDS011;32991;51.374;11.586;2023-03-01T09:38:38;16.85;;;10.70;;
47251;SDS011;32991;51.374;11.586;2023-03-01T09:41:25;16.08;;;10.05;;
47251;SDS011;32991;51.374;11.586;2023-03-01T09:44:11;13.77;;;10.30;;
47251;SDS011;32991;51.374;11.586;2023-03-01T09:46:43;17.52;;;10.40;;
47251;SDS011;32991;51.374;11.586;2023-03-01T09:49:15;17.45;;;10.13;;
47251;SDS011;32991;51.374;11.586;2023-03-01T09:54:30;11.73;;;10.05;;
47251;SDS011;32991;51.374;11.586;2023-03-01T10:00:01;14.48;;;10.27;;
47251;SDS011;32991;51.374;11.586;2023-03-01T10:08:14;14.00;;;10.35;;
47251;SDS011;32991;51.374;11.586;2023-03-01T10:10:50;14.13;;;9.32;;
47251;SDS011;32991;51.374;11.586;2023-03-01T10:16:13;14.05;;;9.95;;
47251;SDS011;32991;51.374;11.586;2023-03-01T10:18:43;14.43;;;10.77;;
47251;SDS011;32991;51.374;11.586;2023-03-01T10:21:19;14.07;;;11.13;;
47251;SDS011;32991;51.374;11.586;2023-03-01T10:23:49;24.63;;;11.55;;
47251;SDS011;32991;51.374;11.586;2023-03-01T10:26:36;15.77;;;11.98;;
47251;SDS011;32991;51.374;11.586;2023-03-01T10:29:18;21.38;;;11.48;;
47251;SDS011;32991;51.374;11.586;2023-03-01T10:31:50;16.85;;;11.50;;
47251;SDS011;32991;51.374;11.586;2023-03-01T10:34:18;20.33;;;11.88;;
47251;SDS011;32991;51.374;11.586;2023-03-01T10:36:55;15.90;;;12.25;;
47251;SDS011;32991;51.374;11.586;2023-03-01T10:42:04;16.42;;;12.25;;
47251;SDS011;32991;51.374;11.586;2023-03-01T10:44:48;15.65;;;12.40;;
47251;SDS011;32991;51.374;11.586;2023-03-01T10:47:22;14.73;;;11.68;;
47251;SDS011;32991;51.374;11.586;2023-03-01T10:49:58;14.52;;;10.98;;
47251;SDS011;32991;51.374;11.586;2023-03-01T10:55:04;18.50;;;11.82;;
47251;SDS011;32991;51.374;11.586;2023-03-01T10:57:54;13.65;;;10.82;;
47251;SDS011;32991;51.374;11.586;2023-03-01T11:00:33;17.55;;;11.48;;
47251;SDS011;32991;51.374;11.586;2023-03-01T11:03:09;16.23;;;11.13;;
47251;SDS011;32991;51.374;11.586;2023-03-01T11:05:50;14.65;;;10.73;;
47251;SDS011;32991;51.374;11.586;2023-03-01T11:11:32;12.90;;;10.68;;
47251;SDS011;32991;51.374;11.586;2023-03-01T11:14:22;18.25;;;11.80;;
47251;SDS011;32991;51.374;11.586;2023-03-01T11:17:12;17.20;;;12.30;;
47251;SDS011;32991;51.374;11.586;2023-03-01T11:20:10;16.90;;;12.48;;
47251;SDS011;32991;51.374;11.586;2023-03-01T11:22:53;17.92;;;12.48;;
47251;SDS011;32991;51.374;11.586;2023-03-01T11:25:35;15.73;;;11.90;;
47251;SDS011;32991;51.374;11.586;2023-03-01T11:28:04;15.27;;;12.27;;
47251;SDS011;32991;51.374;11.586;2023-03-01T11:30:39;17.48;;;12.52;;
47251;SDS011;32991;51.374;11.586;2023-03-01T11:33:49;18.00;;;12.65;;
47251;SDS011;32991;51.374;11.586;2023-03-01T11:36:28;18.00;;;13.07;;
47251;SDS011;32991;51.374;11.586;2023-03-01T11:39:02;17.42;;;13.75;;
47251;SDS011;32991;51.374;11.586;2023-03-01T11:41:32;17.50;;;12.02;;
47251;SDS011;32991;51.374;11.586;2023-03-01T11:44:43;16.05;;;12.77;;
47251;SDS011;32991;51.374;11.586;2023-03-01T11:49:34;15.57;;;11.30;;
47251;SDS011;32991;51.374;11.586;2023-03-01T11:55:12;17.50;;;11.45;;
47251;SDS011;32991;51.374;11.586;2023-03-01T12:00:42;13.77;;;10.82;;
47251;SDS011;32991;51.374;11.586;2023-03-01T12:09:41;13.43;;;10.73;;
47251;SDS011;32991;51.374;11.586;2023-03-01T12:11:58;15.18;;;10.80;;
47251;SDS011;32991;51.374;11.586;2023-03-01T12:20:58;15.68;;;10.48;;
47251;SDS011;32991;51.374;11.586;2023-03-01T12:26:33;13.52;;;9.88;;
47251;SDS011;32991;51.374;11.586;2023-03-01T12:29:09;13.93;;;9.90;;
47251;SDS011;32991;51.374;11.586;2023-03-01T12:32:01;12.43;;;8.73;;
47251;SDS011;32991;51.374;11.586;2023-03-01T12:46:18;9.98;;;8.23;;
47251;SDS011;32991;51.374;11.586;2023-03-01T12:51:33;11.27;;;8.18;;
47251;SDS011;32991;51.374;11.586;2023-03-01T12:54:02;11.93;;;8.60;;
47251;SDS011;32991;51.374;11.586;2023-03-01T12:56:45;11.98;;;8.10;;
47251;SDS011;32991;51.374;11.586;2023-03-01T13:01:54;12.05;;;7.93;;
47251;SDS011;32991;51.374;11.586;2023-03-01T13:10:20;10.00;;;7.97;;
47251;SDS011;32991;51.374;11.586;2023-03-01T13:15:26;11.93;;;8.07;;
47251;SDS011;32991;51.374;11.586;2023-03-01T13:18:03;11.98;;;7.93;;
47251;SDS011;32991;51.374;11.586;2023-03-01T13:20:54;10.27;;;7.07;;
47251;SDS011;32991;51.374;11.586;2023-03-01T13:31:56;9.50;;;6.90;;
47251;SDS011;32991;51.374;11.586;2023-03-01T13:33:59;10.63;;;7.43;;
47251;SDS011;32991;51.374;11.586;2023-03-01T13:39:04;11.35;;;7.07;;
47251;SDS011;32991;51.374;11.586;2023-03-01T13:46:47;10.50;;;7.00;;
47251;SDS011;32991;51.374;11.586;2023-03-01T13:49:16;11.35;;;8.02;;
47251;SDS011;32991;51.374;11.586;2023-03-01T13:51:48;9.88;;;7.45;;
47251;SDS011;32991;51.374;11.586;2023-03-01T13:54:16;10.10;;;7.43;;
47251;SDS011;32991;51.374;11.586;2023-03-01T13:56:49;8.80;;;7.25;;
47251;SDS011;32991;51.374;11.586;2023-03-01T13:59:20;10.88;;;7.18;;
47251;SDS011;32991;51.374;11.586;2023-03-01T14:01:54;11.95;;;7.35;;
47251;SDS011;32991;51.374;11.586;2023-03-01T14:04:29;13.02;;;7.30;;
47251;SDS011;32991;51.374;11.586;2023-03-01T14:07:10;9.88;;;6.63;;
47251;SDS011;32991;51.374;11.586;2023-03-01T14:09:45;12.25;;;8.30;;
47251;SDS011;32991;51.374;11.586;2023-03-01T14:15:22;14.13;;;7.70;;
47251;SDS011;32991;51.374;11.586;2023-03-01T14:20:55;10.55;;;7.28;;
47251;SDS011;32991;51.374;11.586;2023-03-01T14:23:22;10.35;;;6.70;;
47251;SDS011;32991;51.374;11.586;2023-03-01T14:25:56;9.60;;;6.25;;
47251;SDS011;32991;51.374;11.586;2023-03-01T14:28:32;11.68;;;5.45;;
47251;SDS011;32991;51.374;11.586;2023-03-01T14:31:00;7.93;;;5.72;;
47251;SDS011;32991;51.374;11.586;2023-03-01T14:33:28;8.75;;;5.88;;
47251;SDS011;32991;51.374;11.586;2023-03-01T14:36:07;8.80;;;6.18;;
47251;SDS011;32991;51.374;11.586;2023-03-01T14:38:41;8.55;;;6.18;;
47251;SDS011;32991;51.374;11.586;2023-03-01T14:41:12;7.55;;;6.03;;
47251;SDS011;32991;51.374;11.586;2023-03-01T14:43:45;8.57;;;5.93;;
47251;SDS011;32991;51.374;11.586;2023-03-01T14:46:23;9.88;;;7.22;;
47251;SDS011;32991;51.374;11.586;2023-03-01T14:48:54;11.20;;;6.60;;
47251;SDS011;32991;51.374;11.586;2023-03-01T14:51:26;9.82;;;5.82;;
47251;SDS011;32991;51.374;11.586;2023-03-01T14:53:54;9.10;;;5.80;;
47251;SDS011;32991;51.374;11.586;2023-03-01T14:56:21;14.35;;;6.35;;
47251;SDS011;32991;51.374;11.586;2023-03-01T14:58:51;9.73;;;6.35;;
47251;SDS011;32991;51.374;11.586;2023-03-01T15:01:19;8.85;;;5.88;;
47251;SDS011;32991;51.374;11.586;2023-03-01T15:03:46;8.95;;;5.90;;
47251;SDS011;32991;51.374;11.586;2023-03-01T15:06:15;12.85;;;7.07;;
47251;SDS011;32991;51.374;11.586;2023-03-01T15:08:47;8.30;;;5.55;;
47251;SDS011;32991;51.374;11.586;2023-03-01T15:11:17;8.68;;;5.90;;
47251;SDS011;32991;51.374;11.586;2023-03-01T15:13:51;12.32;;;6.43;;
47251;SDS011;32991;51.374;11.586;2023-03-01T15:16:19;9.75;;;6.30;;
47251;SDS011;32991;51.374;11.586;2023-03-01T15:18:51;9.55;;;6.88;;
47251;SDS011;32991;51.374;11.586;2023-03-01T15:26:50;9.07;;;6.57;;
47251;SDS011;32991;51.374;11.586;2023-03-01T15:29:24;9.52;;;7.20;;
47251;SDS011;32991;51.374;11.586;2023-03-01T15:32:39;12.57;;;6.50;;
47251;SDS011;32991;51.374;11.586;2023-03-01T15:35:00;7.50;;;5.82;;
47251;SDS011;32991;51.374;11.586;2023-03-01T15:40:23;8.23;;;5.68;;
47251;SDS011;32991;51.374;11.586;2023-03-01T15:43:01;9.73;;;6.38;;
47251;SDS011;32991;51.374;11.586;2023-03-01T15:48:14;11.73;;;6.55;;
47251;SDS011;32991;51.374;11.586;2023-03-01T15:50:46;9.73;;;6.15;;
47251;SDS011;32991;51.374;11.586;2023-03-01T15:53:23;10.15;;;6.55;;
47251;SDS011;32991;51.374;11.586;2023-03-01T15:55:50;9.85;;;6.18;;
47251;SDS011;32991;51.374;11.586;2023-03-01T15:58:21;12.57;;;6.22;;
47251;SDS011;32991;51.374;11.586;2023-03-01T16:00:49;9.77;;;5.70;;
47251;SDS011;32991;51.374;11.586;2023-03-01T16:03:27;8.35;;;5.90;;
47251;SDS011;32991;51.374;11.586;2023-03-01T16:05:54;9.05;;;5.95;;
47251;SDS011;32991;51.374;11.586;2023-03-01T16:08:21;9.20;;;5.70;;
47251;SDS011;32991;51.374;11.586;2023-03-01T16:10:48;9.82;;;6.05;;
47251;SDS011;32991;51.374;11.586;2023-03-01T16:13:17;11.50;;;6.57;;
47251;SDS011;32991;51.374;11.586;2023-03-01T16:15:43;9.27;;;5.50;;
47251;SDS011;32991;51.374;11.586;2023-03-01T16:18:10;9.77;;;5.57;;
47251;SDS011;32991;51.374;11.586;2023-03-01T16:20:38;9.30;;;5.60;;
47251;SDS011;32991;51.374;11.586;2023-03-01T16:23:06;9.80;;;6.07;;
47251;SDS011;32991;51.374;11.586;2023-03-01T16:25:33;6.95;;;5.25;;
47251;SDS011;32991;51.374;11.586;2023-03-01T16:28:01;9.40;;;5.90;;
47251;SDS011;32991;51.374;11.586;2023-03-01T16:30:31;11.52;;;6.40;;
47251;SDS011;32991;51.374;11.586;2023-03-01T16:33:02;12.60;;;6.57;;